createdAt,value
2023-03-27T00:01:29.069Z,96510.59
2023-03-27T00:03:57.104Z,96514.27
2023-03-27T00:06:24.470Z,96520.04
2023-03-27T00:08:51.827Z,96524.74
2023-03-27T00:11:21.529Z,96527.35
2023-03-27T00:13:53.913Z,96529.15
2023-03-27T00:16:22.257Z,96535.64
2023-03-27T00:18:49.673Z,96537.33
2023-03-27T00:21:19.042Z,96542.81
2023-03-27T00:23:48.873Z,96549.76
2023-03-27T00:26:16.351Z,96553.94
2023-03-27T00:28:47.043Z,96556.66
2023-03-27T00:31:18.396Z,96556.67
2023-03-27T00:33:46.186Z,96562.73
2023-03-27T00:36:14.770Z,96564.84
2023-03-27T00:38:43.339Z,96567.95
2023-03-27T00:41:12.186Z,96571.27
2023-03-27T00:43:43.260Z,96582.44
2023-03-27T00:46:16.769Z,96579.92
2023-03-27T00:48:46.767Z,96581.75
2023-03-27T00:51:14.260Z,96583.77
2023-03-27T00:53:42.411Z,96584.05
2023-03-27T00:56:10.163Z,96578.94
2023-03-27T00:58:39.092Z,96581.04
2023-03-27T01:01:07.351Z,96579.15
2023-03-27T01:03:35.119Z,96581.46
2023-03-27T01:06:02.750Z,96577.20
2023-03-27T01:08:32.603Z,96579.20
2023-03-27T01:11:18.764Z,96579.40
2023-03-27T01:13:52.053Z,96570.02
2023-03-27T01:16:38.713Z,96577.45
2023-03-27T01:19:26.286Z,96573.71
2023-03-27T01:22:18.634Z,96573.86
2023-03-27T01:25:07.868Z,96578.60
2023-03-27T01:27:37.453Z,96583.45
2023-03-27T01:30:05.269Z,96590.04
2023-03-27T01:32:40.013Z,96595.95
2023-03-27T01:35:26.435Z,96597.30
2023-03-27T01:38:13.200Z,96595.70
2023-03-27T01:40:47.454Z,96594.02
2023-03-27T01:43:33.303Z,96600.86
2023-03-27T01:46:08.180Z,96605.59
2023-03-27T01:48:40.193Z,96608.65
2023-03-27T01:51:09.392Z,96611.48
2023-03-27T01:53:41.868Z,96613.79
2023-03-27T01:56:09.427Z,96611.89
2023-03-27T01:58:38.061Z,96611.77
2023-03-27T02:01:06.464Z,96609.40
2023-03-27T02:03:35.605Z,96603.96
2023-03-27T02:06:03.556Z,96607.38
2023-03-27T02:08:33.882Z,96613.75
2023-03-27T02:11:11.680Z,96612.42
2023-03-27T02:13:40.778Z,96613.42
2023-03-27T02:16:09.011Z,96615.77
2023-03-27T02:18:38.094Z,96618.74
2023-03-27T02:21:05.808Z,96618.11
2023-03-27T02:23:33.171Z,96619.52
2023-03-27T02:26:01.436Z,96616.41
2023-03-27T02:28:29.760Z,96612.84
2023-03-27T02:31:32.765Z,96611.03
2023-03-27T02:34:05.796Z,96606.98
2023-03-27T02:36:56.908Z,96613.82
2023-03-27T02:39:38.805Z,96610.61
2023-03-27T02:42:09.544Z,96611.45
2023-03-27T02:44:46.669Z,96607.95
2023-03-27T02:47:17.700Z,96604.52
2023-03-27T02:50:05.189Z,96604.58
2023-03-27T02:52:44.113Z,96598.41
2023-03-27T02:55:15.759Z,96600.45
2023-03-27T02:57:52.459Z,96596.40
2023-03-27T03:00:41.352Z,96583.70
2023-03-27T03:03:28.369Z,96583.98
2023-03-27T03:06:07.004Z,96571.58
2023-03-27T03:08:37.800Z,96577.30
2023-03-27T03:11:09.783Z,96583.03
2023-03-27T03:13:39.443Z,96586.95
2023-03-27T03:16:09.597Z,96588.48
2023-03-27T03:18:37.037Z,96589.73
2023-03-27T03:21:05.510Z,96592.13
2023-03-27T03:23:33.669Z,96593.48
2023-03-27T03:26:06.345Z,96589.08
2023-03-27T03:28:42.914Z,96591.27
2023-03-27T03:31:42.331Z,96592.84
2023-03-27T03:34:14.492Z,96593.89
2023-03-27T03:36:42.249Z,96593.05
2023-03-27T03:39:12.000Z,96601.47
2023-03-27T03:41:40.546Z,96602.94
2023-03-27T03:44:08.211Z,96605.22
2023-03-27T03:46:35.642Z,96611.48
2023-03-27T03:49:04.486Z,96617.34
2023-03-27T03:51:36.922Z,96619.87
2023-03-27T03:54:06.218Z,96624.50
2023-03-27T03:56:33.908Z,96625.98
2023-03-27T03:59:01.437Z,96630.20
2023-03-27T04:01:29.687Z,96637.10
2023-03-27T04:04:01.989Z,96632.79
2023-03-27T04:06:37.372Z,96638.13
2023-03-27T04:09:05.298Z,96641.41
2023-03-27T04:12:11.108Z,96629.85
2023-03-27T04:14:45.772Z,96635.52
2023-03-27T04:17:33.201Z,96635.44
2023-03-27T04:20:02.107Z,96647.65
2023-03-27T04:22:30.770Z,96656.86
2023-03-27T04:24:58.633Z,96662.02
2023-03-27T04:27:30.472Z,96660.73
2023-03-27T04:30:13.939Z,96655.96
2023-03-27T04:33:08.088Z,96664.36
2023-03-27T04:36:05.668Z,96666.58
2023-03-27T04:38:42.266Z,96674.15
2023-03-27T04:41:11.553Z,96685.52
2023-03-27T04:43:42.291Z,96688.36
2023-03-27T04:46:10.361Z,96693.04
2023-03-27T04:48:39.588Z,96693.68
2023-03-27T04:51:32.337Z,96694.69
2023-03-27T04:54:06.988Z,96704.23
2023-03-27T04:56:41.540Z,96705.83
2023-03-27T04:59:09.053Z,96701.35
2023-03-27T05:01:38.461Z,96700.05
2023-03-27T05:04:20.100Z,96698.82
2023-03-27T05:07:19.709Z,96693.02
2023-03-27T05:09:48.611Z,96698.13
2023-03-27T05:12:16.454Z,96694.43
2023-03-27T05:14:51.501Z,96700.78
2023-03-27T05:17:41.455Z,96707.47
2023-03-27T05:20:14.687Z,96709.05
2023-03-27T05:22:43.698Z,96713.16
2023-03-27T05:25:39.075Z,96715.73
2023-03-27T05:28:11.549Z,96726.42
2023-03-27T05:30:41.932Z,96737.25
2023-03-27T05:33:16.412Z,96743.41
2023-03-27T05:35:47.794Z,96750.70
2023-03-27T05:38:16.546Z,96758.20
2023-03-27T05:40:56.912Z,96760.36
2023-03-27T05:43:25.167Z,96769.21
2023-03-27T05:45:53.259Z,96779.88
2023-03-27T05:48:21.857Z,96786.66
2023-03-27T05:50:50.512Z,96787.72
2023-03-27T05:53:29.004Z,96798.67
2023-03-27T05:56:14.812Z,96801.67
2023-03-27T05:58:58.672Z,96807.04
2023-03-27T06:01:27.469Z,96819.75
2023-03-27T06:03:56.477Z,96825.20
2023-03-27T06:06:42.624Z,96825.42
2023-03-27T06:09:12.347Z,96833.36
2023-03-27T06:11:42.385Z,96839.13
2023-03-27T06:14:10.729Z,96843.36
2023-03-27T06:16:51.600Z,96846.84
2023-03-27T06:19:38.820Z,96855.81
2023-03-27T06:22:07.104Z,96864.21
2023-03-27T06:24:35.631Z,96870.16
2023-03-27T06:27:09.765Z,96873.23
2023-03-27T06:29:40.061Z,96882.54
2023-03-27T06:32:08.498Z,96886.02
2023-03-27T06:34:39.951Z,96883.16
2023-03-27T06:37:27.478Z,96882.02
2023-03-27T06:40:01.488Z,96882.10
2023-03-27T06:42:29.787Z,96885.55
2023-03-27T06:45:23.942Z,96888.77
2023-03-27T06:48:13.824Z,96893.34
2023-03-27T06:50:50.113Z,96902.64
2023-03-27T06:55:49.540Z,96916.02
2023-03-27T06:58:18.408Z,96925.33
2023-03-27T07:00:48.332Z,96931.41
2023-03-27T07:03:23.073Z,96935.08
2023-03-27T07:06:09.122Z,96941.39
2023-03-27T07:08:45.061Z,96943.98
2023-03-27T07:11:14.701Z,96953.30
2023-03-27T07:13:48.600Z,96960.72
2023-03-27T07:16:22.368Z,96962.32
2023-03-27T07:18:52.125Z,96970.90
2023-03-27T07:21:20.808Z,96973.19
2023-03-27T07:23:48.158Z,96986.02
2023-03-27T07:26:21.238Z,97000.95
2023-03-27T07:29:00.685Z,97020.15
2023-03-27T07:31:55.003Z,97030.84
2023-03-27T07:34:28.166Z,97036.60
2023-03-27T07:37:22.734Z,97062.33
2023-03-27T07:40:12.933Z,97089.39
2023-03-27T07:42:45.104Z,97113.48
2023-03-27T07:45:21.715Z,97135.41
2023-03-27T07:47:50.401Z,97160.23
2023-03-27T07:50:23.511Z,97195.19
2023-03-27T07:52:51.322Z,97214.26
2023-03-27T07:55:19.614Z,97242.71
2023-03-27T07:58:02.200Z,97262.68
2023-03-27T08:00:34.844Z,97281.55
2023-03-27T08:03:09.537Z,97302.60
2023-03-27T08:05:37.897Z,97328.80
2023-03-27T08:08:10.365Z,97359.31
2023-03-27T08:10:54.204Z,97402.76
2023-03-27T08:13:22.886Z,97434.00
2023-03-27T08:15:51.076Z,97455.23
2023-03-27T08:18:25.306Z,97474.73
2023-03-27T08:20:56.873Z,97503.34
2023-03-27T08:23:26.945Z,97526.52
2023-03-27T08:26:14.019Z,97545.86
2023-03-27T08:28:53.703Z,97552.54
2023-03-27T08:31:23.658Z,97576.83
2023-03-27T08:33:52.096Z,97584.48
2023-03-27T08:36:25.405Z,97585.83
2023-03-27T08:38:55.039Z,97615.23
2023-03-27T08:41:33.415Z,97653.77
2023-03-27T08:44:11.518Z,97678.95
2023-03-27T08:46:42.000Z,97707.27
2023-03-27T08:49:16.572Z,97772.63
2023-03-27T08:52:00.306Z,97845.66
2023-03-27T08:54:34.424Z,97896.11
2023-03-27T08:57:04.065Z,97934.61
2023-03-27T08:59:32.407Z,97976.08
2023-03-27T09:02:03.398Z,98009.14
2023-03-27T09:04:47.289Z,98048.73
2023-03-27T09:07:38.892Z,98093.02
2023-03-27T09:10:26.663Z,98146.13
2023-03-27T09:12:58.510Z,98177.95
2023-03-27T09:15:28.222Z,98191.13
2023-03-27T09:18:16.864Z,98195.33
2023-03-27T09:20:46.270Z,98199.88
2023-03-27T09:23:27.960Z,98216.58
2023-03-27T09:26:22.036Z,98209.66
2023-03-27T09:29:12.124Z,98206.19
2023-03-27T09:31:50.082Z,98206.48
2023-03-27T09:34:36.238Z,98207.05
2023-03-27T09:37:12.896Z,98219.77
2023-03-27T09:39:41.374Z,98245.02
2023-03-27T09:42:20.108Z,98255.97
2023-03-27T09:44:50.114Z,98253.90
2023-03-27T09:47:32.343Z,98250.56
2023-03-27T09:50:27.712Z,98263.29
2023-03-27T09:53:13.522Z,98291.66
2023-03-27T09:55:57.970Z,98326.09
2023-03-27T09:58:30.749Z,98355.28
2023-03-27T10:01:08.270Z,98343.72
2023-03-27T10:03:38.602Z,98353.98
2023-03-27T10:06:13.192Z,98370.96
2023-03-27T10:08:55.032Z,98380.83
2023-03-27T10:11:27.317Z,98384.72
2023-03-27T10:14:09.359Z,98384.50
2023-03-27T10:16:39.740Z,98401.30
2023-03-27T10:19:08.979Z,98402.45
2023-03-27T10:21:42.272Z,98408.58
2023-03-27T10:24:17.003Z,98409.27
2023-03-27T10:27:15.483Z,98412.19
2023-03-27T10:29:47.343Z,98405.31
2023-03-27T10:32:15.452Z,98400.83
2023-03-27T10:34:53.732Z,98406.99
2023-03-27T10:37:40.231Z,98407.70
2023-03-27T10:40:36.358Z,98402.00
2023-03-27T10:43:13.746Z,98404.75
2023-03-27T10:45:50.995Z,98407.64
2023-03-27T10:48:39.487Z,98409.46
2023-03-27T10:51:18.098Z,98415.21
2023-03-27T10:53:56.291Z,98408.78
2023-03-27T10:56:42.614Z,98407.66
2023-03-27T10:59:16.179Z,98405.58
2023-03-27T11:01:46.248Z,98407.89
2023-03-27T11:04:14.865Z,98409.44
2023-03-27T11:06:49.429Z,98409.96
2023-03-27T11:09:38.694Z,98407.72
2023-03-27T11:12:11.271Z,98400.15
2023-03-27T11:15:13.259Z,98402.88
2023-03-27T11:18:02.455Z,98407.77
2023-03-27T11:20:43.925Z,98405.23
2023-03-27T11:23:34.910Z,98402.70
2023-03-27T11:26:22.729Z,98405.33
2023-03-27T11:28:52.684Z,98400.95
2023-03-27T11:31:27.231Z,98400.51
2023-03-27T11:33:55.336Z,98398.89
2023-03-27T11:36:25.670Z,98394.19
2023-03-27T11:39:04.589Z,98391.48
2023-03-27T11:41:33.272Z,98395.74
2023-03-27T11:44:06.293Z,98391.59
2023-03-27T11:47:11.811Z,98393.61
2023-03-27T11:49:48.108Z,98390.38
2023-03-27T11:52:21.674Z,98390.18
2023-03-27T11:55:08.280Z,98393.61
2023-03-27T11:57:44.705Z,98397.95
2023-03-27T12:00:34.025Z,98396.08
2023-03-27T12:03:21.269Z,98395.13
2023-03-27T12:06:01.800Z,98396.67
2023-03-27T12:08:36.118Z,98393.92
2023-03-27T12:11:04.244Z,98396.74
2023-03-27T12:13:55.046Z,98390.86
2023-03-27T12:16:38.101Z,98394.98
2023-03-27T12:19:27.742Z,98395.08
2023-03-27T12:22:43.493Z,98401.20
2023-03-27T12:25:38.115Z,98403.71
2023-03-27T12:28:48.028Z,98403.78
2023-03-27T12:31:41.512Z,98396.05
2023-03-27T12:34:27.581Z,98391.34
2023-03-27T12:36:54.819Z,98394.95
2023-03-27T12:39:24.244Z,98406.88
2023-03-27T12:41:52.098Z,98403.17
2023-03-27T12:44:29.805Z,98403.65
2023-03-27T12:47:15.983Z,98394.46
2023-03-27T12:49:47.933Z,98401.16
2023-03-27T12:52:26.422Z,98405.35
2023-03-27T12:55:27.451Z,98415.86
2023-03-27T12:57:58.920Z,98417.23
2023-03-27T13:00:59.943Z,98419.64
2023-03-27T13:04:10.433Z,98416.45
2023-03-27T13:06:41.232Z,98412.17
2023-03-27T13:09:21.775Z,98408.58
2023-03-27T13:12:02.239Z,98406.09
2023-03-27T13:14:46.493Z,98401.27
2023-03-27T13:17:35.407Z,98397.78
2023-03-27T13:20:17.886Z,98396.51
2023-03-27T13:23:03.129Z,98389.88
2023-03-27T13:25:31.677Z,98396.66
2023-03-27T13:28:11.969Z,98398.73
2023-03-27T13:31:19.043Z,98401.55
2023-03-27T13:34:37.518Z,98404.45
2023-03-27T13:37:11.134Z,98407.11
2023-03-27T13:39:47.930Z,98402.84
2023-03-27T13:42:18.021Z,98405.25
2023-03-27T13:44:49.967Z,98410.05
2023-03-27T13:47:36.003Z,98408.98
2023-03-27T13:50:22.969Z,98404.70
2023-03-27T13:53:08.687Z,98403.17
2023-03-27T13:56:01.929Z,98407.30
2023-03-27T13:59:12.511Z,98415.30
2023-03-27T14:01:51.894Z,98416.66
2023-03-27T14:04:20.428Z,98412.76
2023-03-27T14:06:51.645Z,98414.77
2023-03-27T14:09:19.359Z,98409.34
2023-03-27T14:12:27.004Z,98406.25
2023-03-27T14:15:32.465Z,98403.31
2023-03-27T14:18:26.726Z,98394.80
2023-03-27T14:20:55.828Z,98395.91
2023-03-27T14:23:28.465Z,98386.79
2023-03-27T14:26:08.606Z,98385.77
2023-03-27T14:28:54.656Z,98384.54
2023-03-27T14:31:48.797Z,98382.67
2023-03-27T14:34:50.998Z,98380.30
2023-03-27T14:37:41.567Z,98375.39
2023-03-27T14:40:31.390Z,98369.84
2023-03-27T14:43:01.241Z,98371.52
2023-03-27T14:45:31.558Z,98367.32
2023-03-27T14:48:03.303Z,98366.75
2023-03-27T14:50:39.194Z,98373.59
2023-03-27T14:53:09.915Z,98380.58
2023-03-27T14:56:04.873Z,98383.34
2023-03-27T14:58:54.144Z,98391.34
2023-03-27T15:01:22.674Z,98393.71
2023-03-27T15:03:54.352Z,98403.16
2023-03-27T15:06:25.838Z,98401.73
2023-03-27T15:08:58.516Z,98405.06
2023-03-27T15:11:53.101Z,98410.15
2023-03-27T15:14:28.854Z,98408.20
2023-03-27T15:17:00.514Z,98411.52
2023-03-27T15:19:48.767Z,98410.18
2023-03-27T15:22:20.585Z,98408.00
2023-03-27T15:24:57.233Z,98403.77
2023-03-27T15:27:28.329Z,98403.45
2023-03-27T15:29:58.049Z,98407.27
2023-03-27T15:32:28.963Z,98406.11
2023-03-27T15:34:57.660Z,98407.61
2023-03-27T15:37:25.830Z,98407.35
2023-03-27T15:40:00.310Z,98409.38
2023-03-27T15:42:32.006Z,98410.77
2023-03-27T15:45:02.440Z,98408.67
2023-03-27T15:47:32.255Z,98410.31
2023-03-27T15:50:05.366Z,98408.88
2023-03-27T15:52:33.306Z,98409.77
2023-03-27T15:55:03.729Z,98411.39
2023-03-27T15:57:31.894Z,98412.06
2023-03-27T16:00:01.514Z,98411.33
2023-03-27T16:02:32.961Z,98406.34
2023-03-27T16:05:04.551Z,98412.74
2023-03-27T16:07:32.592Z,98411.38
2023-03-27T16:10:02.090Z,98412.56
2023-03-27T16:12:52.890Z,98409.82
2023-03-27T16:15:30.605Z,98408.35
2023-03-27T16:17:59.602Z,98407.15
2023-03-27T16:20:32.871Z,98402.64
2023-03-27T16:23:01.671Z,98404.02
2023-03-27T16:25:31.426Z,98401.16
2023-03-27T16:27:59.525Z,98404.83
2023-03-27T16:30:27.611Z,98407.37
2023-03-27T16:32:56.465Z,98402.11
2023-03-27T16:35:24.744Z,98402.86
2023-03-27T16:37:52.952Z,98402.25
2023-03-27T16:40:20.614Z,98401.64
2023-03-27T16:42:47.968Z,98403.17
2023-03-27T16:45:15.778Z,98401.30
2023-03-27T16:47:43.818Z,98399.83
2023-03-27T16:50:14.884Z,98402.79
2023-03-27T16:52:43.634Z,98398.45
2023-03-27T16:55:13.449Z,98389.45
2023-03-27T16:57:42.003Z,98384.84
2023-03-27T17:00:11.447Z,98380.02
2023-03-27T17:02:43.872Z,98375.69
2023-03-27T17:05:12.139Z,98362.73
2023-03-27T17:07:45.996Z,98355.55
2023-03-27T17:10:18.054Z,98343.61
2023-03-27T17:12:56.886Z,98338.21
2023-03-27T17:15:24.436Z,98330.19
2023-03-27T17:17:52.872Z,98320.97
2023-03-27T17:20:21.370Z,98311.27
2023-03-27T17:22:49.465Z,98304.75
2023-03-27T17:25:18.053Z,98293.66
2023-03-27T17:27:45.813Z,98282.42
2023-03-27T17:30:16.074Z,98270.65
2023-03-27T17:32:47.802Z,98254.38
2023-03-27T17:35:15.250Z,98239.39
2023-03-27T17:37:43.628Z,98231.63
2023-03-27T17:40:12.105Z,98215.93
2023-03-27T17:42:40.121Z,98208.05
2023-03-27T17:45:11.084Z,98198.02
2023-03-27T17:47:38.628Z,98183.33
2023-03-27T17:50:06.512Z,98176.25
2023-03-27T17:52:34.212Z,98163.71
2023-03-27T17:55:04.530Z,98157.01
2023-03-27T17:57:32.494Z,98148.23
2023-03-27T18:00:00.103Z,98145.26
2023-03-27T18:02:30.512Z,98142.23
2023-03-27T18:04:58.557Z,98135.66
2023-03-27T18:07:26.245Z,98129.22
2023-03-27T18:10:05.754Z,98126.98
2023-03-27T18:12:33.926Z,98128.07
2023-03-27T18:15:02.081Z,98124.95
2023-03-27T18:17:30.619Z,98117.56
2023-03-27T18:19:58.246Z,98118.02
2023-03-27T18:22:25.695Z,98113.83
2023-03-27T18:24:53.767Z,98114.65
2023-03-27T18:27:21.430Z,98108.92
2023-03-27T18:29:52.473Z,98105.45
2023-03-27T18:32:20.434Z,98099.05
2023-03-27T18:34:47.896Z,98098.69
2023-03-27T18:37:15.821Z,98099.69
2023-03-27T18:39:43.944Z,98099.08
2023-03-27T18:42:11.439Z,98098.35
2023-03-27T18:44:41.103Z,98097.19
2023-03-27T18:47:09.170Z,98091.21
2023-03-27T18:49:36.793Z,98088.70
2023-03-27T18:52:05.027Z,98091.63
2023-03-27T18:54:32.661Z,98091.79
2023-03-27T18:57:03.768Z,98091.59
2023-03-27T18:59:32.089Z,98088.41
2023-03-27T19:02:01.620Z,98085.64
2023-03-27T19:04:31.606Z,98079.76
2023-03-27T19:06:59.269Z,98077.59
2023-03-27T19:09:40.934Z,98076.27
2023-03-27T19:12:10.379Z,98070.61
2023-03-27T19:15:00.473Z,98065.88
2023-03-27T19:17:53.685Z,98062.97
2023-03-27T19:21:00.479Z,98063.05
2023-03-27T19:23:48.638Z,98060.92
2023-03-27T19:26:19.073Z,98060.33
2023-03-27T19:28:47.251Z,98055.42
2023-03-27T19:31:16.655Z,98052.55
2023-03-27T19:33:45.413Z,98048.64
2023-03-27T19:36:12.927Z,98046.30
2023-03-27T19:38:41.147Z,98040.82
2023-03-27T19:41:09.261Z,98034.39
2023-03-27T19:43:38.930Z,98030.45
2023-03-27T19:46:15.739Z,98021.89
2023-03-27T19:48:45.404Z,98024.61
2023-03-27T19:51:20.956Z,98021.56
2023-03-27T19:53:51.620Z,98018.58
2023-03-27T19:56:22.220Z,98012.73
2023-03-27T19:58:49.983Z,98009.59
2023-03-27T20:01:19.549Z,98005.94
2023-03-27T20:03:47.839Z,98002.26
2023-03-27T20:06:19.116Z,97993.61
2023-03-27T20:08:47.084Z,97996.52
2023-03-27T20:11:15.668Z,97988.38
2023-03-27T20:13:55.352Z,97981.08
2023-03-27T20:16:25.500Z,97975.54
2023-03-27T20:19:04.024Z,97973.40
2023-03-27T20:21:33.452Z,97967.44
2023-03-27T20:24:01.213Z,97965.69
2023-03-27T20:26:38.394Z,97959.31
2023-03-27T20:29:11.687Z,97951.91
2023-03-27T20:31:39.504Z,97950.08
2023-03-27T20:34:07.454Z,97947.26
2023-03-27T20:36:35.100Z,97944.73
2023-03-27T20:39:13.908Z,97939.34
2023-03-27T20:41:41.801Z,97936.95
2023-03-27T20:44:16.156Z,97932.68
2023-03-27T20:46:50.649Z,97923.30
2023-03-27T20:51:59.264Z,97911.54
2023-03-27T20:54:28.341Z,97911.44
2023-03-27T20:56:56.289Z,97904.40
2023-03-27T20:59:24.587Z,97898.56
2023-03-27T21:01:54.135Z,97895.59
2023-03-27T21:04:24.006Z,97890.42
2023-03-27T21:06:54.351Z,97886.69
2023-03-27T21:09:22.192Z,97892.59
2023-03-27T21:11:49.886Z,97895.39
2023-03-27T21:14:17.313Z,97901.95
2023-03-27T21:16:48.339Z,97900.02
2023-03-27T21:19:17.448Z,97896.05
2023-03-27T21:21:45.871Z,97889.54
2023-03-27T21:24:13.898Z,97882.11
2023-03-27T21:26:41.579Z,97874.61
2023-03-27T21:29:10.954Z,97864.83
2023-03-27T21:31:39.572Z,97853.47
2023-03-27T21:34:07.445Z,97840.88
2023-03-27T21:36:35.219Z,97824.98
2023-03-27T21:39:02.881Z,97819.56
2023-03-27T21:41:30.497Z,97816.11
2023-03-27T21:43:57.864Z,97800.97
2023-03-27T21:46:25.675Z,97791.63
2023-03-27T21:48:53.614Z,97783.16
2023-03-27T21:51:20.943Z,97772.33
2023-03-27T21:53:48.296Z,97767.38
2023-03-27T21:56:16.262Z,97756.48
2023-03-27T21:58:44.256Z,97744.44
2023-03-27T22:01:14.698Z,97731.36
2023-03-27T22:03:43.958Z,97725.13
2023-03-27T22:06:13.337Z,97716.09
2023-03-27T22:08:42.946Z,97704.64
2023-03-27T22:11:11.073Z,97702.58
2023-03-27T22:13:38.602Z,97691.13
2023-03-27T22:16:11.621Z,97686.81
2023-03-27T22:18:39.752Z,97673.20
2023-03-27T22:21:17.161Z,97670.09
2023-03-27T22:23:45.003Z,97658.92
2023-03-27T22:26:12.654Z,97654.06
2023-03-27T22:28:42.071Z,97640.39
2023-03-27T22:31:09.797Z,97634.42
2023-03-27T22:33:38.048Z,97628.91
2023-03-27T22:36:06.065Z,97623.02
2023-03-27T22:38:33.951Z,97618.09
2023-03-27T22:41:03.347Z,97608.77
2023-03-27T22:43:31.672Z,97598.90
2023-03-27T22:46:09.334Z,97591.71
2023-03-27T22:48:39.139Z,97585.94
2023-03-27T22:51:06.797Z,97578.23
2023-03-27T22:53:37.321Z,97573.62
2023-03-27T22:56:05.391Z,97568.27
2023-03-27T22:58:33.059Z,97562.98
2023-03-27T23:01:03.001Z,97559.46
2023-03-27T23:03:30.564Z,97552.64
2023-03-27T23:05:59.060Z,97552.14
2023-03-27T23:08:27.693Z,97551.05
2023-03-27T23:10:55.969Z,97549.83
2023-03-27T23:13:24.465Z,97544.01
2023-03-27T23:15:52.329Z,97544.70
2023-03-27T23:18:26.842Z,97544.34
2023-03-27T23:20:58.703Z,97540.63
2023-03-27T23:23:26.524Z,97534.79
2023-03-27T23:25:54.333Z,97532.88
2023-03-27T23:28:21.694Z,97526.11
2023-03-27T23:30:55.950Z,97518.72
2023-03-27T23:33:38.001Z,97518.50
2023-03-27T23:36:07.335Z,97515.73
2023-03-27T23:38:34.993Z,97516.22
2023-03-27T23:41:03.168Z,97509.45
2023-03-27T23:43:30.702Z,97509.77
2023-03-27T23:46:04.666Z,97507.39
2023-03-27T23:48:32.261Z,97503.47
2023-03-27T23:50:59.923Z,97499.09
2023-03-27T23:53:30.147Z,97496.27
2023-03-27T23:55:58.358Z,97494.33
2023-03-27T23:58:31.717Z,97486.65
